sensor_id;sensor_type;location;lat;lon;timestamp;P1;P2;P0
49064;PMS5003;34876;51.464;-0.150;2023-03-14T00:01:54;3;3;
49064;PMS5003;34876;51.464;-0.150;2023-03-14T00:04:23;2;2;
49064;PMS5003;34876;51.464;-0.150;2023-03-14T00:06:54;5;5;
49064;PMS5003;34876;51.464;-0.150;2023-03-14T00:09:24;6;6;
49064;PMS5003;34876;51.464;-0.150;2023-03-14T00:11:53;5;5;
49064;PMS5003;34876;51.464;-0.150;2023-03-14T00:14:23;6;6;
49064;PMS5003;34876;51.464;-0.150;2023-03-14T00:16:54;7;5;
49064;PMS5003;34876;51.464;-0.150;2023-03-14T00:19:23;5;4;
49064;PMS5003;34876;51.464;-0.150;2023-03-14T00:21:52;5;4;
49064;PMS5003;34876;51.464;-0.150;2023-03-14T00:24:21;6;5;
49064;PMS5003;34876;51.464;-0.150;2023-03-14T00:26:51;8;7;
49064;PMS5003;34876;51.464;-0.150;2023-03-14T00:29:21;8;5;
49064;PMS5003;34876;51.464;-0.150;2023-03-14T00:31:52;13;8;
49064;PMS5003;34876;51.464;-0.150;2023-03-14T00:34:28;5;5;
49064;PMS5003;34876;51.464;-0.150;2023-03-14T00:36:57;4;4;
49064;PMS5003;34876;51.464;-0.150;2023-03-14T00:39:28;7;5;
49064;PMS5003;34876;51.464;-0.150;2023-03-14T00:41:57;8;4;
49064;PMS5003;34876;51.464;-0.150;2023-03-14T00:44:26;6;6;
49064;PMS5003;34876;51.464;-0.150;2023-03-14T00:46:57;8;4;
49064;PMS5003;34876;51.464;-0.150;2023-03-14T00:49:27;7;7;
49064;PMS5003;34876;51.464;-0.150;2023-03-14T00:51:57;6;6;
49064;PMS5003;34876;51.464;-0.150;2023-03-14T00:54:27;7;5;
49064;PMS5003;34876;51.464;-0.150;2023-03-14T00:56:57;8;8;
49064;PMS5003;34876;51.464;-0.150;2023-03-14T00:59:27;6;4;
49064;PMS5003;34876;51.464;-0.150;2023-03-14T01:03:16;4;4;
49064;PMS5003;34876;51.464;-0.150;2023-03-14T01:05:44;4;4;
49064;PMS5003;34876;51.464;-0.150;2023-03-14T01:08:31;3;3;
49064;PMS5003;34876;51.464;-0.150;2023-03-14T01:10:59;3;3;
49064;PMS5003;34876;51.464;-0.150;2023-03-14T01:13:36;3;3;
49064;PMS5003;34876;51.464;-0.150;2023-03-14T01:16:07;4;3;
49064;PMS5003;34876;51.464;-0.150;2023-03-14T01:18:38;5;3;
49064;PMS5003;34876;51.464;-0.150;2023-03-14T01:21:09;3;3;
49064;PMS5003;34876;51.464;-0.150;2023-03-14T01:23:42;3;3;
49064;PMS5003;34876;51.464;-0.150;2023-03-14T01:26:12;3;3;
49064;PMS5003;34876;51.464;-0.150;2023-03-14T01:28:43;3;3;
49064;PMS5003;34876;51.464;-0.150;2023-03-14T01:31:13;3;3;
49064;PMS5003;34876;51.464;-0.150;2023-03-14T01:33:44;3;3;
49064;PMS5003;34876;51.464;-0.150;2023-03-14T01:36:17;4;4;
49064;PMS5003;34876;51.464;-0.150;2023-03-14T01:38:46;2;2;
49064;PMS5003;34876;51.464;-0.150;2023-03-14T01:41:17;4;4;
49064;PMS5003;34876;51.464;-0.150;2023-03-14T01:43:47;3;3;
49064;PMS5003;34876;51.464;-0.150;2023-03-14T01:46:20;6;4;
49064;PMS5003;34876;51.464;-0.150;2023-03-14T01:49:00;2;2;
49064;PMS5003;34876;51.464;-0.150;2023-03-14T01:51:34;2;2;
49064;PMS5003;34876;51.464;-0.150;2023-03-14T01:54:12;3;1;
49064;PMS5003;34876;51.464;-0.150;2023-03-14T01:56:49;2;2;
49064;PMS5003;34876;51.464;-0.150;2023-03-14T01:59:22;1;1;
49064;PMS5003;34876;51.464;-0.150;2023-03-14T02:01:54;4;2;
49064;PMS5003;34876;51.464;-0.150;2023-03-14T02:04:25;2;2;
49064;PMS5003;34876;51.464;-0.150;2023-03-14T02:07:03;2;2;
49064;PMS5003;34876;51.464;-0.150;2023-03-14T02:09:39;2;2;
49064;PMS5003;34876;51.464;-0.150;2023-03-14T02:12:09;0;0;
49064;PMS5003;34876;51.464;-0.150;2023-03-14T02:14:42;3;3;
49064;PMS5003;34876;51.464;-0.150;2023-03-14T02:17:13;2;2;
49064;PMS5003;34876;51.464;-0.150;2023-03-14T02:19:49;2;2;
49064;PMS5003;34876;51.464;-0.150;2023-03-14T02:22:26;2;1;
49064;PMS5003;34876;51.464;-0.150;2023-03-14T02:24:58;3;2;
49064;PMS5003;34876;51.464;-0.150;2023-03-14T02:27:41;2;2;
49064;PMS5003;34876;51.464;-0.150;2023-03-14T02:30:12;1;1;
49064;PMS5003;34876;51.464;-0.150;2023-03-14T02:32:45;1;1;
49064;PMS5003;34876;51.464;-0.150;2023-03-14T02:35:21;0;0;
49064;PMS5003;34876;51.464;-0.150;2023-03-14T02:37:54;1;1;
49064;PMS5003;34876;51.464;-0.150;2023-03-14T02:40:27;1;0;
49064;PMS5003;34876;51.464;-0.150;2023-03-14T02:43:02;0;0;
49064;PMS5003;34876;51.464;-0.150;2023-03-14T02:45:39;0;0;
49064;PMS5003;34876;51.464;-0.150;2023-03-14T02:48:18;2;0;
49064;PMS5003;34876;51.464;-0.150;2023-03-14T02:50:57;1;1;
49064;PMS5003;34876;51.464;-0.150;2023-03-14T02:53:30;1;1;
49064;PMS5003;34876;51.464;-0.150;2023-03-14T02:56:02;1;1;
49064;PMS5003;34876;51.464;-0.150;2023-03-14T02:58:30;1;1;
49064;PMS5003;34876;51.464;-0.150;2023-03-14T03:01:00;1;1;
49064;PMS5003;34876;51.464;-0.150;2023-03-14T03:03:30;1;1;
49064;PMS5003;34876;51.464;-0.150;2023-03-14T03:05:59;0;0;
49064;PMS5003;34876;51.464;-0.150;2023-03-14T03:08:29;1;1;
49064;PMS5003;34876;51.464;-0.150;2023-03-14T03:10:58;0;0;
49064;PMS5003;34876;51.464;-0.150;2023-03-14T03:13:27;0;0;
49064;PMS5003;34876;51.464;-0.150;2023-03-14T03:15:56;2;1;
49064;PMS5003;34876;51.464;-0.150;2023-03-14T03:18:25;1;1;
49064;PMS5003;34876;51.464;-0.150;2023-03-14T03:20:59;0;0;
49064;PMS5003;34876;51.464;-0.150;2023-03-14T03:23:29;1;1;
49064;PMS5003;34876;51.464;-0.150;2023-03-14T03:25:58;0;0;
49064;PMS5003;34876;51.464;-0.150;2023-03-14T03:28:28;2;2;
49064;PMS5003;34876;51.464;-0.150;2023-03-14T03:31:05;2;2;
49064;PMS5003;34876;51.464;-0.150;2023-03-14T03:33:35;0;0;
49064;PMS5003;34876;51.464;-0.150;2023-03-14T03:36:08;1;1;
49064;PMS5003;34876;51.464;-0.150;2023-03-14T03:38:39;1;1;
49064;PMS5003;34876;51.464;-0.150;2023-03-14T03:41:08;0;0;
49064;PMS5003;34876;51.464;-0.150;2023-03-14T03:43:38;1;1;
49064;PMS5003;34876;51.464;-0.150;2023-03-14T03:46:07;0;0;
49064;PMS5003;34876;51.464;-0.150;2023-03-14T03:48:41;0;0;
49064;PMS5003;34876;51.464;-0.150;2023-03-14T03:51:15;0;0;
49064;PMS5003;34876;51.464;-0.150;2023-03-14T03:53:55;1;1;
49064;PMS5003;34876;51.464;-0.150;2023-03-14T03:56:25;0;0;
49064;PMS5003;34876;51.464;-0.150;2023-03-14T03:59:00;0;0;
49064;PMS5003;34876;51.464;-0.150;2023-03-14T04:01:30;0;0;
49064;PMS5003;34876;51.464;-0.150;2023-03-14T04:04:00;0;0;
49064;PMS5003;34876;51.464;-0.150;2023-03-14T04:06:28;1;1;
49064;PMS5003;34876;51.464;-0.150;2023-03-14T04:08:59;0;0;
49064;PMS5003;34876;51.464;-0.150;2023-03-14T04:11:29;1;1;
49064;PMS5003;34876;51.464;-0.150;2023-03-14T04:13:59;0;0;
49064;PMS5003;34876;51.464;-0.150;2023-03-14T04:16:30;0;0;
49064;PMS5003;34876;51.464;-0.150;2023-03-14T04:19:00;1;1;
49064;PMS5003;34876;51.464;-0.150;2023-03-14T04:21:31;1;1;
49064;PMS5003;34876;51.464;-0.150;2023-03-14T04:24:00;2;1;
49064;PMS5003;34876;51.464;-0.150;2023-03-14T04:26:29;0;0;
49064;PMS5003;34876;51.464;-0.150;2023-03-14T04:28:59;1;1;
49064;PMS5003;34876;51.464;-0.150;2023-03-14T04:31:29;1;0;
49064;PMS5003;34876;51.464;-0.150;2023-03-14T04:34:00;1;1;
49064;PMS5003;34876;51.464;-0.150;2023-03-14T04:36:30;0;0;
49064;PMS5003;34876;51.464;-0.150;2023-03-14T04:38:59;0;0;
49064;PMS5003;34876;51.464;-0.150;2023-03-14T04:41:30;1;1;
49064;PMS5003;34876;51.464;-0.150;2023-03-14T04:43:59;0;0;
49064;PMS5003;34876;51.464;-0.150;2023-03-14T04:46:29;0;0;
49064;PMS5003;34876;51.464;-0.150;2023-03-14T04:48:59;1;1;
49064;PMS5003;34876;51.464;-0.150;2023-03-14T04:51:29;1;1;
49064;PMS5003;34876;51.464;-0.150;2023-03-14T04:53:58;3;2;
49064;PMS5003;34876;51.464;-0.150;2023-03-14T04:56:27;0;0;
49064;PMS5003;34876;51.464;-0.150;2023-03-14T04:58:57;0;0;
49064;PMS5003;34876;51.464;-0.150;2023-03-14T05:01:26;1;1;
49064;PMS5003;34876;51.464;-0.150;2023-03-14T05:03:56;1;1;
49064;PMS5003;34876;51.464;-0.150;2023-03-14T05:06:24;1;1;
49064;PMS5003;34876;51.464;-0.150;2023-03-14T05:08:53;3;3;
49064;PMS5003;34876;51.464;-0.150;2023-03-14T05:11:22;0;0;
49064;PMS5003;34876;51.464;-0.150;2023-03-14T05:13:52;2;2;
49064;PMS5003;34876;51.464;-0.150;2023-03-14T05:16:21;2;2;
49064;PMS5003;34876;51.464;-0.150;2023-03-14T05:18:58;1;1;
49064;PMS5003;34876;51.464;-0.150;2023-03-14T05:21:28;1;1;
49064;PMS5003;34876;51.464;-0.150;2023-03-14T05:23:57;1;1;
49064;PMS5003;34876;51.464;-0.150;2023-03-14T05:26:26;2;2;
49064;PMS5003;34876;51.464;-0.150;2023-03-14T05:28:54;2;1;
49064;PMS5003;34876;51.464;-0.150;2023-03-14T05:31:23;2;2;
49064;PMS5003;34876;51.464;-0.150;2023-03-14T05:33:53;2;2;
49064;PMS5003;34876;51.464;-0.150;2023-03-14T05:36:22;1;0;
49064;PMS5003;34876;51.464;-0.150;2023-03-14T05:38:51;1;1;
49064;PMS5003;34876;51.464;-0.150;2023-03-14T05:41:21;4;2;
49064;PMS5003;34876;51.464;-0.150;2023-03-14T05:43:50;1;1;
49064;PMS5003;34876;51.464;-0.150;2023-03-14T05:46:19;2;2;
49064;PMS5003;34876;51.464;-0.150;2023-03-14T05:48:48;2;2;
49064;PMS5003;34876;51.464;-0.150;2023-03-14T05:51:17;2;2;
49064;PMS5003;34876;51.464;-0.150;2023-03-14T05:53:46;4;3;
49064;PMS5003;34876;51.464;-0.150;2023-03-14T05:56:15;2;2;
49064;PMS5003;34876;51.464;-0.150;2023-03-14T05:58:45;2;2;
49064;PMS5003;34876;51.464;-0.150;2023-03-14T06:01:14;4;2;
49064;PMS5003;34876;51.464;-0.150;2023-03-14T06:03:45;1;1;
49064;PMS5003;34876;51.464;-0.150;2023-03-14T06:06:14;2;2;
49064;PMS5003;34876;51.464;-0.150;2023-03-14T06:08:44;1;1;
49064;PMS5003;34876;51.464;-0.150;2023-03-14T06:11:14;3;3;
49064;PMS5003;34876;51.464;-0.150;2023-03-14T06:13:49;3;3;
49064;PMS5003;34876;51.464;-0.150;2023-03-14T06:16:19;4;2;
49064;PMS5003;34876;51.464;-0.150;2023-03-14T06:18:48;1;1;
49064;PMS5003;34876;51.464;-0.150;2023-03-14T06:21:18;2;2;
49064;PMS5003;34876;51.464;-0.150;2023-03-14T06:23:47;2;2;
49064;PMS5003;34876;51.464;-0.150;2023-03-14T06:26:16;3;3;
49064;PMS5003;34876;51.464;-0.150;2023-03-14T06:28:44;2;2;
49064;PMS5003;34876;51.464;-0.150;2023-03-14T06:31:19;2;2;
49064;PMS5003;34876;51.464;-0.150;2023-03-14T06:33:48;1;1;
49064;PMS5003;34876;51.464;-0.150;2023-03-14T06:36:17;2;1;
49064;PMS5003;34876;51.464;-0.150;2023-03-14T06:38:47;2;2;
49064;PMS5003;34876;51.464;-0.150;2023-03-14T06:41:16;2;1;
49064;PMS5003;34876;51.464;-0.150;2023-03-14T06:43:45;3;3;
49064;PMS5003;34876;51.464;-0.150;2023-03-14T06:46:14;2;2;
49064;PMS5003;34876;51.464;-0.150;2023-03-14T06:48:43;2;2;
49064;PMS5003;34876;51.464;-0.150;2023-03-14T06:51:12;2;2;
49064;PMS5003;34876;51.464;-0.150;2023-03-14T06:53:42;2;2;
49064;PMS5003;34876;51.464;-0.150;2023-03-14T06:56:12;4;1;
49064;PMS5003;34876;51.464;-0.150;2023-03-14T06:58:41;1;1;
49064;PMS5003;34876;51.464;-0.150;2023-03-14T07:01:15;3;2;
49064;PMS5003;34876;51.464;-0.150;2023-03-14T07:03:49;2;2;
49064;PMS5003;34876;51.464;-0.150;2023-03-14T07:06:18;4;2;
49064;PMS5003;34876;51.464;-0.150;2023-03-14T07:08:47;1;1;
49064;PMS5003;34876;51.464;-0.150;2023-03-14T07:11:16;2;1;
49064;PMS5003;34876;51.464;-0.150;2023-03-14T07:13:45;4;3;
49064;PMS5003;34876;51.464;-0.150;2023-03-14T07:16:14;0;0;
49064;PMS5003;34876;51.464;-0.150;2023-03-14T07:18:43;2;2;
49064;PMS5003;34876;51.464;-0.150;2023-03-14T07:21:13;1;1;
49064;PMS5003;34876;51.464;-0.150;2023-03-14T07:23:41;2;1;
49064;PMS5003;34876;51.464;-0.150;2023-03-14T07:26:11;1;1;
49064;PMS5003;34876;51.464;-0.150;2023-03-14T07:28:39;2;2;
49064;PMS5003;34876;51.464;-0.150;2023-03-14T07:31:08;2;2;
49064;PMS5003;34876;51.464;-0.150;2023-03-14T07:33:38;1;1;
49064;PMS5003;34876;51.464;-0.150;2023-03-14T07:36:08;1;1;
49064;PMS5003;34876;51.464;-0.150;2023-03-14T07:38:38;1;1;
49064;PMS5003;34876;51.464;-0.150;2023-03-14T07:41:08;2;2;
49064;PMS5003;34876;51.464;-0.150;2023-03-14T07:43:38;1;1;
49064;PMS5003;34876;51.464;-0.150;2023-03-14T07:46:08;3;1;
49064;PMS5003;34876;51.464;-0.150;2023-03-14T07:48:37;1;1;
49064;PMS5003;34876;51.464;-0.150;2023-03-14T07:51:07;1;1;
49064;PMS5003;34876;51.464;-0.150;2023-03-14T07:53:36;1;1;
49064;PMS5003;34876;51.464;-0.150;2023-03-14T07:56:05;1;1;
49064;PMS5003;34876;51.464;-0.150;2023-03-14T07:58:35;0;0;
49064;PMS5003;34876;51.464;-0.150;2023-03-14T08:01:04;0;0;
49064;PMS5003;34876;51.464;-0.150;2023-03-14T08:03:34;0;0;
49064;PMS5003;34876;51.464;-0.150;2023-03-14T08:06:09;0;0;
49064;PMS5003;34876;51.464;-0.150;2023-03-14T08:08:39;1;1;
49064;PMS5003;34876;51.464;-0.150;2023-03-14T08:11:07;1;1;
49064;PMS5003;34876;51.464;-0.150;2023-03-14T08:13:37;1;1;
49064;PMS5003;34876;51.464;-0.150;2023-03-14T08:16:07;1;1;
49064;PMS5003;34876;51.464;-0.150;2023-03-14T08:18:37;0;0;
49064;PMS5003;34876;51.464;-0.150;2023-03-14T08:21:07;1;1;
49064;PMS5003;34876;51.464;-0.150;2023-03-14T08:23:35;1;1;
49064;PMS5003;34876;51.464;-0.150;2023-03-14T08:26:06;2;2;
49064;PMS5003;34876;51.464;-0.150;2023-03-14T08:28:35;2;2;
49064;PMS5003;34876;51.464;-0.150;2023-03-14T08:31:06;1;1;
49064;PMS5003;34876;51.464;-0.150;2023-03-14T08:33:35;1;1;
49064;PMS5003;34876;51.464;-0.150;2023-03-14T08:36:05;1;1;
49064;PMS5003;34876;51.464;-0.150;2023-03-14T08:38:34;2;2;
49064;PMS5003;34876;51.464;-0.150;2023-03-14T08:41:04;1;1;
49064;PMS5003;34876;51.464;-0.150;2023-03-14T08:43:33;2;2;
49064;PMS5003;34876;51.464;-0.150;2023-03-14T08:46:03;2;2;
49064;PMS5003;34876;51.464;-0.150;2023-03-14T08:48:32;3;1;
49064;PMS5003;34876;51.464;-0.150;2023-03-14T08:51:05;2;2;
49064;PMS5003;34876;51.464;-0.150;2023-03-14T08:53:37;1;1;
49064;PMS5003;34876;51.464;-0.150;2023-03-14T08:56:07;1;1;
49064;PMS5003;34876;51.464;-0.150;2023-03-14T08:58:37;1;1;
49064;PMS5003;34876;51.464;-0.150;2023-03-14T09:01:07;2;2;
49064;PMS5003;34876;51.464;-0.150;2023-03-14T09:03:38;1;1;
49064;PMS5003;34876;51.464;-0.150;2023-03-14T09:06:13;1;1;
49064;PMS5003;34876;51.464;-0.150;2023-03-14T09:08:42;1;1;
49064;PMS5003;34876;51.464;-0.150;2023-03-14T09:11:11;1;1;
49064;PMS5003;34876;51.464;-0.150;2023-03-14T09:13:41;2;2;
49064;PMS5003;34876;51.464;-0.150;2023-03-14T09:16:10;3;1;
49064;PMS5003;34876;51.464;-0.150;2023-03-14T09:18:39;2;2;
49064;PMS5003;34876;51.464;-0.150;2023-03-14T09:21:09;1;1;
49064;PMS5003;34876;51.464;-0.150;2023-03-14T09:23:38;2;2;
49064;PMS5003;34876;51.464;-0.150;2023-03-14T09:26:07;0;0;
49064;PMS5003;34876;51.464;-0.150;2023-03-14T09:28:36;2;2;
49064;PMS5003;34876;51.464;-0.150;2023-03-14T09:31:06;2;2;
49064;PMS5003;34876;51.464;-0.150;2023-03-14T09:33:36;3;3;
49064;PMS5003;34876;51.464;-0.150;2023-03-14T09:36:06;1;1;
49064;PMS5003;34876;51.464;-0.150;2023-03-14T09:38:38;2;2;
49064;PMS5003;34876;51.464;-0.150;2023-03-14T09:41:12;2;2;
49064;PMS5003;34876;51.464;-0.150;2023-03-14T09:43:44;2;1;
49064;PMS5003;34876;51.464;-0.150;2023-03-14T09:46:14;2;2;
49064;PMS5003;34876;51.464;-0.150;2023-03-14T09:48:44;1;1;
49064;PMS5003;34876;51.464;-0.150;2023-03-14T09:51:14;1;1;
49064;PMS5003;34876;51.464;-0.150;2023-03-14T09:53:46;1;1;
49064;PMS5003;34876;51.464;-0.150;2023-03-14T09:56:18;2;2;
49064;PMS5003;34876;51.464;-0.150;2023-03-14T09:58:51;2;2;
49064;PMS5003;34876;51.464;-0.150;2023-03-14T10:01:25;4;4;
49064;PMS5003;34876;51.464;-0.150;2023-03-14T10:03:57;2;2;
49064;PMS5003;34876;51.464;-0.150;2023-03-14T10:06:30;2;2;
49064;PMS5003;34876;51.464;-0.150;2023-03-14T10:09:00;4;2;
49064;PMS5003;34876;51.464;-0.150;2023-03-14T10:11:31;2;2;
49064;PMS5003;34876;51.464;-0.150;2023-03-14T10:14:03;2;1;
49064;PMS5003;34876;51.464;-0.150;2023-03-14T10:16:35;2;2;
49064;PMS5003;34876;51.464;-0.150;2023-03-14T10:19:06;2;2;
49064;PMS5003;34876;51.464;-0.150;2023-03-14T10:21:39;1;1;
49064;PMS5003;34876;51.464;-0.150;2023-03-14T10:24:10;2;2;
49064;PMS5003;34876;51.464;-0.150;2023-03-14T10:26:48;0;0;
49064;PMS5003;34876;51.464;-0.150;2023-03-14T10:29:20;1;1;
49064;PMS5003;34876;51.464;-0.150;2023-03-14T10:31:51;2;2;
49064;PMS5003;34876;51.464;-0.150;2023-03-14T10:34:23;4;3;
49064;PMS5003;34876;51.464;-0.150;2023-03-14T10:36:56;2;2;
49064;PMS5003;34876;51.464;-0.150;2023-03-14T10:39:28;3;3;
49064;PMS5003;34876;51.464;-0.150;2023-03-14T10:42:05;2;2;
49064;PMS5003;34876;51.464;-0.150;2023-03-14T10:44:42;2;1;
49064;PMS5003;34876;51.464;-0.150;2023-03-14T10:47:15;3;2;
49064;PMS5003;34876;51.464;-0.150;2023-03-14T10:49:47;1;1;
49064;PMS5003;34876;51.464;-0.150;2023-03-14T10:52:19;4;4;
49064;PMS5003;34876;51.464;-0.150;2023-03-14T10:54:54;4;4;
49064;PMS5003;34876;51.464;-0.150;2023-03-14T10:57:25;2;1;
49064;PMS5003;34876;51.464;-0.150;2023-03-14T10:59:56;2;2;
49064;PMS5003;34876;51.464;-0.150;2023-03-14T11:02:33;3;3;
49064;PMS5003;34876;51.464;-0.150;2023-03-14T11:05:18;1;1;
49064;PMS5003;34876;51.464;-0.150;2023-03-14T11:07:56;4;3;
49064;PMS5003;34876;51.464;-0.150;2023-03-14T11:10:31;2;2;
49064;PMS5003;34876;51.464;-0.150;2023-03-14T11:13:05;4;3;
49064;PMS5003;34876;51.464;-0.150;2023-03-14T11:15:47;2;2;
49064;PMS5003;34876;51.464;-0.150;2023-03-14T11:18:30;2;1;
49064;PMS5003;34876;51.464;-0.150;2023-03-14T11:21:17;3;3;
49064;PMS5003;34876;51.464;-0.150;2023-03-14T11:23:59;2;2;
49064;PMS5003;34876;51.464;-0.150;2023-03-14T11:26:42;4;3;
49064;PMS5003;34876;51.464;-0.150;2023-03-14T11:29:20;2;2;
49064;PMS5003;34876;51.464;-0.150;2023-03-14T11:31:51;2;2;
49064;PMS5003;34876;51.464;-0.150;2023-03-14T11:34:27;4;4;
49064;PMS5003;34876;51.464;-0.150;2023-03-14T11:37:04;1;1;
49064;PMS5003;34876;51.464;-0.150;2023-03-14T11:39:41;2;2;
49064;PMS5003;34876;51.464;-0.150;2023-03-14T11:42:16;2;2;
49064;PMS5003;34876;51.464;-0.150;2023-03-14T11:44:46;1;1;
49064;PMS5003;34876;51.464;-0.150;2023-03-14T11:47:18;3;3;
49064;PMS5003;34876;51.464;-0.150;2023-03-14T11:49:50;2;2;
49064;PMS5003;34876;51.464;-0.150;2023-03-14T11:52:31;1;1;
49064;PMS5003;34876;51.464;-0.150;2023-03-14T11:55:05;2;2;
49064;PMS5003;34876;51.464;-0.150;2023-03-14T11:57:39;4;2;
49064;PMS5003;34876;51.464;-0.150;2023-03-14T12:00:13;1;1;
49064;PMS5003;34876;51.464;-0.150;2023-03-14T12:02:51;4;2;
49064;PMS5003;34876;51.464;-0.150;2023-03-14T12:05:29;5;3;
49064;PMS5003;34876;51.464;-0.150;2023-03-14T12:08:28;2;2;
49064;PMS5003;34876;51.464;-0.150;2023-03-14T12:11:13;2;2;
49064;PMS5003;34876;51.464;-0.150;2023-03-14T12:13:49;2;2;
49064;PMS5003;34876;51.464;-0.150;2023-03-14T12:16:26;2;2;
49064;PMS5003;34876;51.464;-0.150;2023-03-14T12:19:33;2;2;
49064;PMS5003;34876;51.464;-0.150;2023-03-14T12:22:07;3;3;
49064;PMS5003;34876;51.464;-0.150;2023-03-14T12:24:52;2;2;
49064;PMS5003;34876;51.464;-0.150;2023-03-14T12:28:03;3;3;
49064;PMS5003;34876;51.464;-0.150;2023-03-14T12:30:44;2;2;
49064;PMS5003;34876;51.464;-0.150;2023-03-14T12:33:26;0;0;
49064;PMS5003;34876;51.464;-0.150;2023-03-14T12:35:58;2;2;
49064;PMS5003;34876;51.464;-0.150;2023-03-14T12:38:57;2;2;
49064;PMS5003;34876;51.464;-0.150;2023-03-14T12:41:36;3;2;
49064;PMS5003;34876;51.464;-0.150;2023-03-14T12:44:44;2;2;
49064;PMS5003;34876;51.464;-0.150;2023-03-14T12:48:40;2;2;
49064;PMS5003;34876;51.464;-0.150;2023-03-14T12:51:12;4;4;
49064;PMS5003;34876;51.464;-0.150;2023-03-14T12:53:47;3;3;
49064;PMS5003;34876;51.464;-0.150;2023-03-14T12:56:45;2;2;
49064;PMS5003;34876;51.464;-0.150;2023-03-14T12:59:30;3;2;
49064;PMS5003;34876;51.464;-0.150;2023-03-14T13:02:09;2;1;
49064;PMS5003;34876;51.464;-0.150;2023-03-14T13:04:49;2;2;
49064;PMS5003;34876;51.464;-0.150;2023-03-14T13:08:02;4;3;
49064;PMS5003;34876;51.464;-0.150;2023-03-14T13:10:40;5;3;
49064;PMS5003;34876;51.464;-0.150;2023-03-14T13:13:15;2;2;
49064;PMS5003;34876;51.464;-0.150;2023-03-14T13:15:53;4;2;
49064;PMS5003;34876;51.464;-0.150;2023-03-14T13:18:26;1;1;
49064;PMS5003;34876;51.464;-0.150;2023-03-14T13:20:59;4;3;
49064;PMS5003;34876;51.464;-0.150;2023-03-14T13:23:33;2;2;
49064;PMS5003;34876;51.464;-0.150;2023-03-14T13:26:08;2;2;
49064;PMS5003;34876;51.464;-0.150;2023-03-14T13:28:41;2;2;
49064;PMS5003;34876;51.464;-0.150;2023-03-14T13:31:16;2;2;
49064;PMS5003;34876;51.464;-0.150;2023-03-14T13:33:57;1;1;
49064;PMS5003;34876;51.464;-0.150;2023-03-14T13:36:27;3;3;
49064;PMS5003;34876;51.464;-0.150;2023-03-14T13:38:57;2;2;
49064;PMS5003;34876;51.464;-0.150;2023-03-14T13:41:27;2;2;
49064;PMS5003;34876;51.464;-0.150;2023-03-14T13:43:58;3;3;
49064;PMS5003;34876;51.464;-0.150;2023-03-14T13:46:33;2;2;
49064;PMS5003;34876;51.464;-0.150;2023-03-14T13:49:04;4;2;
49064;PMS5003;34876;51.464;-0.150;2023-03-14T13:51:37;2;1;
49064;PMS5003;34876;51.464;-0.150;2023-03-14T13:54:13;1;1;
49064;PMS5003;34876;51.464;-0.150;2023-03-14T13:56:44;2;2;
49064;PMS5003;34876;51.464;-0.150;2023-03-14T13:59:22;0;0;
49064;PMS5003;34876;51.464;-0.150;2023-03-14T14:01:51;1;1;
49064;PMS5003;34876;51.464;-0.150;2023-03-14T14:04:22;2;2;
49064;PMS5003;34876;51.464;-0.150;2023-03-14T14:06:57;1;1;
49064;PMS5003;34876;51.464;-0.150;2023-03-14T14:09:29;1;1;
49064;PMS5003;34876;51.464;-0.150;2023-03-14T14:12:05;1;1;
49064;PMS5003;34876;51.464;-0.150;2023-03-14T14:14:38;1;1;
49064;PMS5003;34876;51.464;-0.150;2023-03-14T14:17:12;1;1;
49064;PMS5003;34876;51.464;-0.150;2023-03-14T14:19:43;2;2;
49064;PMS5003;34876;51.464;-0.150;2023-03-14T14:22:14;2;2;
49064;PMS5003;34876;51.464;-0.150;2023-03-14T14:24:45;2;2;
49064;PMS5003;34876;51.464;-0.150;2023-03-14T14:27:15;1;1;
49064;PMS5003;34876;51.464;-0.150;2023-03-14T14:29:55;2;2;
49064;PMS5003;34876;51.464;-0.150;2023-03-14T14:32:27;2;2;
49064;PMS5003;34876;51.464;-0.150;2023-03-14T14:35:04;1;1;
49064;PMS5003;34876;51.464;-0.150;2023-03-14T14:37:34;0;0;
49064;PMS5003;34876;51.464;-0.150;2023-03-14T14:40:15;1;1;
49064;PMS5003;34876;51.464;-0.150;2023-03-14T14:42:48;1;1;
49064;PMS5003;34876;51.464;-0.150;2023-03-14T14:45:19;1;1;
49064;PMS5003;34876;51.464;-0.150;2023-03-14T14:47:50;2;1;
49064;PMS5003;34876;51.464;-0.150;2023-03-14T14:50:26;3;2;
49064;PMS5003;34876;51.464;-0.150;2023-03-14T14:52:58;2;2;
49064;PMS5003;34876;51.464;-0.150;2023-03-14T14:55:30;2;2;
49064;PMS5003;34876;51.464;-0.150;2023-03-14T14:58:11;1;0;
49064;PMS5003;34876;51.464;-0.150;2023-03-14T15:00:50;1;1;
49064;PMS5003;34876;51.464;-0.150;2023-03-14T15:03:21;2;2;
49064;PMS5003;34876;51.464;-0.150;2023-03-14T15:05:50;1;1;
49064;PMS5003;34876;51.464;-0.150;2023-03-14T15:08:20;1;1;
49064;PMS5003;34876;51.464;-0.150;2023-03-14T15:10:49;0;0;
49064;PMS5003;34876;51.464;-0.150;2023-03-14T15:13:18;1;1;
49064;PMS5003;34876;51.464;-0.150;2023-03-14T15:15:53;0;0;
49064;PMS5003;34876;51.464;-0.150;2023-03-14T15:18:22;2;2;
49064;PMS5003;34876;51.464;-0.150;2023-03-14T15:20:53;1;1;
49064;PMS5003;34876;51.464;-0.150;2023-03-14T15:23:22;1;1;
49064;PMS5003;34876;51.464;-0.150;2023-03-14T15:25:51;2;2;
49064;PMS5003;34876;51.464;-0.150;2023-03-14T15:28:22;1;1;
49064;PMS5003;34876;51.464;-0.150;2023-03-14T15:30:53;2;1;
49064;PMS5003;34876;51.464;-0.150;2023-03-14T15:33:23;0;0;
49064;PMS5003;34876;51.464;-0.150;2023-03-14T15:35:53;2;2;
49064;PMS5003;34876;51.464;-0.150;2023-03-14T15:38:22;3;3;
49064;PMS5003;34876;51.464;-0.150;2023-03-14T15:40:52;1;1;
49064;PMS5003;34876;51.464;-0.150;2023-03-14T15:43:22;1;1;
49064;PMS5003;34876;51.464;-0.150;2023-03-14T15:45:51;2;2;
49064;PMS5003;34876;51.464;-0.150;2023-03-14T15:48:21;0;0;
49064;PMS5003;34876;51.464;-0.150;2023-03-14T15:50:49;0;0;
49064;PMS5003;34876;51.464;-0.150;2023-03-14T15:53:21;1;1;
49064;PMS5003;34876;51.464;-0.150;2023-03-14T15:55:51;1;1;
49064;PMS5003;34876;51.464;-0.150;2023-03-14T15:58:20;2;2;
49064;PMS5003;34876;51.464;-0.150;2023-03-14T16:00:50;1;1;
49064;PMS5003;34876;51.464;-0.150;2023-03-14T16:03:21;1;1;
49064;PMS5003;34876;51.464;-0.150;2023-03-14T16:05:51;3;2;
49064;PMS5003;34876;51.464;-0.150;2023-03-14T16:08:25;1;1;
49064;PMS5003;34876;51.464;-0.150;2023-03-14T16:10:57;2;2;
49064;PMS5003;34876;51.464;-0.150;2023-03-14T16:13:28;5;2;
49064;PMS5003;34876;51.464;-0.150;2023-03-14T16:15:58;1;1;
49064;PMS5003;34876;51.464;-0.150;2023-03-14T16:18:28;1;1;
49064;PMS5003;34876;51.464;-0.150;2023-03-14T16:20:59;3;3;
49064;PMS5003;34876;51.464;-0.150;2023-03-14T16:23:30;4;2;
49064;PMS5003;34876;51.464;-0.150;2023-03-14T16:26:04;2;1;
49064;PMS5003;34876;51.464;-0.150;2023-03-14T16:28:35;2;2;
49064;PMS5003;34876;51.464;-0.150;2023-03-14T16:31:06;1;1;
49064;PMS5003;34876;51.464;-0.150;2023-03-14T16:33:38;2;2;
49064;PMS5003;34876;51.464;-0.150;2023-03-14T16:36:09;2;2;
49064;PMS5003;34876;51.464;-0.150;2023-03-14T16:38:42;1;1;
49064;PMS5003;34876;51.464;-0.150;2023-03-14T16:41:14;2;1;
49064;PMS5003;34876;51.464;-0.150;2023-03-14T16:43:44;3;3;
49064;PMS5003;34876;51.464;-0.150;2023-03-14T16:46:13;1;1;
49064;PMS5003;34876;51.464;-0.150;2023-03-14T16:48:43;1;1;
49064;PMS5003;34876;51.464;-0.150;2023-03-14T16:51:13;0;0;
49064;PMS5003;34876;51.464;-0.150;2023-03-14T16:53:42;1;1;
49064;PMS5003;34876;51.464;-0.150;2023-03-14T16:56:12;1;1;
49064;PMS5003;34876;51.464;-0.150;2023-03-14T16:58:43;2;2;
49064;PMS5003;34876;51.464;-0.150;2023-03-14T17:01:13;3;1;
49064;PMS5003;34876;51.464;-0.150;2023-03-14T17:03:44;2;0;
49064;PMS5003;34876;51.464;-0.150;2023-03-14T17:06:16;4;2;
49064;PMS5003;34876;51.464;-0.150;2023-03-14T17:08:47;0;0;
49064;PMS5003;34876;51.464;-0.150;2023-03-14T17:11:16;1;1;